Time;durP1;ratioP1;P1;durP2;ratioP2;P2;SDS_P1;SDS_P2;PMS_P1;PMS_P2;Temp;Humidity;BMP_temperature;BMP_pressure;BME280_temperature;BME280_humidity;BME280_pressure;Samples;Min_cycle;Max_cycle;Signal;HPM_P1;HPM_P2
2021/01/20 00:00:49;;;;;;;8.53;5.77;;;;;;;-4.48;72.91;92791.63;1779470;80;22274;-75
2021/01/20 00:03:17;;;;;;;6.73;5.37;;;;;;;-4.48;72.59;92778.36;1770899;80;21227;-72
2021/01/20 00:05:44;;;;;;;9.00;5.80;;;;;;;-4.46;72.28;92773.53;1779019;80;21072;-74
2021/01/20 00:08:12;;;;;;;8.10;5.97;;;;;;;-4.42;72.31;92773.67;1779572;80;21595;-75
2021/01/20 00:10:39;;;;;;;9.37;6.00;;;;;;;-4.42;72.34;92759.08;1769587;80;21586;-73
2021/01/20 00:13:07;;;;;;;7.87;5.63;;;;;;;-4.42;72.34;92757.20;1778654;80;21709;-75
2021/01/20 00:15:35;;;;;;;8.93;5.70;;;;;;;-4.43;72.34;92759.63;1777751;80;21219;-74
2021/01/20 00:18:03;;;;;;;8.07;6.07;;;;;;;-4.38;72.31;92762.66;1768236;80;21159;-73
2021/01/20 00:20:30;;;;;;;10.03;6.13;;;;;;;-4.35;71.96;92763.35;1778492;80;21510;-75
2021/01/20 00:22:58;;;;;;;7.13;5.00;;;;;;;-4.32;72.16;92761.39;1767681;80;21734;-73
2021/01/20 00:25:25;;;;;;;8.33;5.90;;;;;;;-4.31;72.51;92764.83;1779139;80;21370;-72
2021/01/20 00:27:53;;;;;;;9.03;5.93;;;;;;;-4.31;72.60;92758.19;1772194;80;21171;-75
2021/01/20 00:30:23;;;;;;;10.27;5.70;;;;;;;-4.31;72.96;92752.87;1775875;80;21191;-74
2021/01/20 00:32:51;;;;;;;10.47;6.20;;;;;;;-4.31;72.86;92753.66;1767645;80;21097;-75
2021/01/20 00:35:24;;;;;;;9.20;6.30;;;;;;;-4.29;73.03;92753.32;1779453;80;21574;-74
2021/01/20 00:37:49;;;;;;;9.13;6.50;;;;;;;-4.25;73.08;92768.84;1778508;80;21348;-75
2021/01/20 00:40:17;;;;;;;8.57;5.77;;;;;;;-4.24;73.16;92747.85;1771720;80;21705;-74
2021/01/20 00:42:45;;;;;;;10.30;6.43;;;;;;;-4.25;73.15;92759.02;1769838;80;21202;-73
2021/01/20 00:45:13;;;;;;;9.30;6.00;;;;;;;-4.22;73.22;92759.69;1777008;80;21179;-74
2021/01/20 00:47:41;;;;;;;10.03;6.07;;;;;;;-4.20;73.62;92763.38;1767165;80;21176;-74
2021/01/20 00:50:11;;;;;;;9.23;5.97;;;;;;;-4.23;73.73;92764.78;1778970;80;21359;-73
2021/01/20 00:52:39;;;;;;;8.27;5.63;;;;;;;-4.26;73.77;92758.77;1774795;80;21630;-76
2021/01/20 00:55:10;;;;;;;9.33;6.07;;;;;;;-4.25;74.08;92773.63;1729815;80;21207;-75
2021/01/20 00:57:38;;;;;;;10.73;6.13;;;;;;;-4.26;74.00;92760.66;1775782;80;21152;-74
2021/01/20 01:00:07;;;;;;;9.67;6.20;;;;;;;-4.27;78.01;92761.76;1744869;80;21634;-75
2021/01/20 01:02:36;;;;;;;10.40;6.50;;;;;;;-4.28;80.80;92765.52;1777843;80;21460;-74
2021/01/20 01:05:05;;;;;;;8.27;5.27;;;;;;;-4.27;80.31;92732.56;1768817;80;21583;-75
2021/01/20 01:07:33;;;;;;;11.20;6.37;;;;;;;-4.25;78.10;92735.13;1774410;80;21108;-77
2021/01/20 01:10:01;;;;;;;8.50;5.33;;;;;;;-4.19;78.41;92733.84;1774418;80;21208;-73
2021/01/20 01:12:30;;;;;;;10.00;6.27;;;;;;;-4.18;77.21;92728.75;1762497;80;21184;-76
2021/01/20 01:14:59;;;;;;;10.47;6.63;;;;;;;-4.10;76.19;92723.72;1715200;83;21377;-74
2021/01/20 01:17:28;;;;;;;9.13;5.93;;;;;;;-4.02;75.75;92718.94;1777730;80;22213;-73
2021/01/20 01:19:58;;;;;;;8.03;5.67;;;;;;;-4.00;75.66;92716.72;1769571;80;21140;-73
2021/01/20 01:22:25;;;;;;;9.43;6.60;;;;;;;-3.95;75.75;92705.91;1773886;80;21406;-76
2021/01/20 01:24:53;;;;;;;9.43;5.67;;;;;;;-3.95;75.96;92703.25;1778114;80;21215;-78
2021/01/20 01:27:20;;;;;;;11.80;7.17;;;;;;;-3.95;75.89;92686.78;1778415;80;22553;-74
2021/01/20 01:29:49;;;;;;;10.10;6.37;;;;;;;-3.94;75.56;92683.58;1746022;81;21199;-76
2021/01/20 01:32:23;;;;;;;7.27;5.07;;;;;;;-3.87;75.42;92681.72;1778772;80;21124;-77
2021/01/20 01:34:51;;;;;;;10.77;5.63;;;;;;;-3.82;75.46;92670.36;1776101;80;21661;-78
2021/01/20 01:37:19;;;;;;;8.33;5.67;;;;;;;-3.83;75.63;92675.45;1778222;80;21175;-77
2021/01/20 01:40:05;;;;;;;8.13;5.40;;;;;;;-3.82;75.50;92668.27;1734134;80;21215;-77
2021/01/20 01:42:33;;;;;;;8.47;5.57;;;;;;;-3.80;75.67;92673.48;1778298;80;21209;-77
2021/01/20 01:45:02;;;;;;;9.70;5.93;;;;;;;-3.78;75.40;92678.47;1779705;80;21128;-76
2021/01/20 01:47:29;;;;;;;8.70;6.10;;;;;;;-3.76;75.59;92673.06;1778146;80;21183;-74
2021/01/20 01:50:02;;;;;;;9.93;6.37;;;;;;;-3.73;75.33;92659.11;1771412;79;21163;-75
2021/01/20 01:52:31;;;;;;;8.57;6.13;;;;;;;-3.71;75.92;92674.75;1773139;80;22586;-77
2021/01/20 01:55:17;;;;;;;9.57;6.10;;;;;;;-3.71;75.93;92661.46;1774370;80;21218;-76
2021/01/20 01:57:48;;;;;;;7.23;5.53;;;;;;;-3.72;76.31;92670.54;1770121;80;21136;-77
2021/01/20 02:00:16;;;;;;;8.17;5.67;;;;;;;-3.73;75.98;92657.00;1767599;80;21144;-75
2021/01/20 02:02:49;;;;;;;9.30;5.07;;;;;;;-3.72;76.45;92676.63;1717132;82;21205;-75
2021/01/20 02:05:18;;;;;;;5.20;3.80;;;;;;;-3.73;76.18;92671.63;1765997;80;21398;-75
2021/01/20 02:07:47;;;;;;;9.30;5.03;;;;;;;-3.72;75.83;92648.73;1772169;80;21598;-75
2021/01/20 02:10:16;;;;;;;8.60;5.93;;;;;;;-3.69;75.75;92670.64;1779348;80;21179;-75
2021/01/20 02:13:27;;;;;;;6.73;5.07;;;;;;;-3.67;76.22;92663.70;1769196;80;21140;-76
2021/01/20 02:16:17;;;;;;;8.07;5.00;;;;;;;-3.68;76.32;92674.88;1775333;80;21116;-74
2021/01/20 02:18:51;;;;;;;7.40;5.27;;;;;;;-3.73;76.38;92667.08;1771479;80;21629;-74
2021/01/20 02:21:27;;;;;;;8.63;5.28;;;;;;;-3.72;77.25;92673.97;1715076;83;21247;-80
2021/01/20 02:24:11;;;;;;;8.20;5.53;;;;;;;-3.73;77.29;92682.25;1752905;80;21183;-77
2021/01/20 02:27:04;;;;;;;7.83;4.70;;;;;;;-3.75;77.55;92683.91;1722190;81;21135;-75
2021/01/20 02:30:09;;;;;;;9.20;4.90;;;;;;;-3.76;77.33;92679.70;1778881;80;21656;-76
2021/01/20 02:32:58;;;;;;;6.97;4.43;;;;;;;-3.75;77.93;92678.59;1716292;83;21382;-74
2021/01/20 02:35:44;;;;;;;5.30;4.10;;;;;;;-3.76;77.39;92667.75;1771960;80;21183;-78
2021/01/20 02:38:12;;;;;;;7.00;4.70;;;;;;;-3.74;77.99;92676.16;1770497;80;21667;-77
2021/01/20 02:40:44;;;;;;;6.10;4.23;;;;;;;-3.75;77.75;92673.28;1771944;80;21175;-75
2021/01/20 02:43:14;;;;;;;5.70;4.03;;;;;;;-3.72;77.45;92660.69;1771305;80;21502;-76
2021/01/20 02:45:49;;;;;;;7.57;4.50;;;;;;;-3.64;76.95;92660.95;1751493;80;21624;-79
2021/01/20 02:48:17;;;;;;;6.37;4.20;;;;;;;-3.59;77.37;92657.53;1715676;83;21685;-78
2021/01/20 02:50:47;;;;;;;3.93;3.03;;;;;;;-3.58;77.36;92664.39;1771830;80;21262;-78
2021/01/20 02:53:20;;;;;;;4.63;2.97;;;;;;;-3.55;76.83;92657.66;1778828;80;21183;-75
2021/01/20 02:55:59;;;;;;;7.37;4.17;;;;;;;-3.52;76.71;92625.12;1779694;79;21154;-76
2021/01/20 02:58:40;;;;;;;3.20;2.90;;;;;;;-3.50;76.66;92639.64;1778538;80;21259;-74
2021/01/20 03:01:19;;;;;;;4.40;3.60;;;;;;;-3.47;77.14;92608.95;1720723;80;21175;-78
2021/01/20 03:03:46;;;;;;;6.47;3.57;;;;;;;-3.48;77.41;92644.06;1694400;80;21208;-79
2021/01/20 03:06:16;;;;;;;5.27;3.57;;;;;;;-3.48;76.49;92645.95;1778730;80;21119;-78
2021/01/20 03:08:44;;;;;;;5.77;3.70;;;;;;;-3.47;77.35;92636.31;1779281;80;21398;-77
2021/01/20 03:11:11;;;;;;;5.57;3.40;;;;;;;-3.45;78.22;92606.77;1772671;80;22534;-76
2021/01/20 03:13:40;;;;;;;4.37;3.57;;;;;;;-3.46;77.12;92626.45;1771373;80;21255;-76
2021/01/20 03:16:07;;;;;;;5.83;4.00;;;;;;;-3.39;77.20;92610.75;1776991;80;21313;-75
2021/01/20 03:18:35;;;;;;;5.20;3.43;;;;;;;-3.35;75.55;92606.89;1779407;80;21554;-77
2021/01/20 03:21:02;;;;;;;4.87;3.40;;;;;;;-3.31;75.88;92610.44;1778392;80;21188;-77
2021/01/20 03:23:30;;;;;;;4.97;3.47;;;;;;;-3.27;75.29;92621.97;1779597;80;21174;-80
2021/01/20 03:25:57;;;;;;;5.00;3.83;;;;;;;-3.24;74.87;92631.96;1750355;81;21196;-76
2021/01/20 03:28:24;;;;;;;6.20;3.70;;;;;;;-3.21;74.66;92627.33;1770301;80;21140;-78
2021/01/20 03:30:52;;;;;;;5.47;3.87;;;;;;;-3.19;74.73;92618.48;1778897;80;21211;-75
2021/01/20 03:33:19;;;;;;;3.77;3.23;;;;;;;-3.21;74.46;92619.34;1779554;80;21562;-76
2021/01/20 03:35:48;;;;;;;3.73;3.33;;;;;;;-3.23;74.65;92619.69;1778988;80;21367;-78
2021/01/20 03:38:15;;;;;;;5.80;4.00;;;;;;;-3.21;74.89;92615.36;1774668;80;21160;-76
2021/01/20 03:40:42;;;;;;;5.77;3.80;;;;;;;-3.22;74.05;92617.24;1775182;80;21551;-75
2021/01/20 03:43:10;;;;;;;6.17;3.47;;;;;;;-3.21;74.24;92605.49;1773294;80;21151;-75
2021/01/20 03:45:37;;;;;;;5.73;4.13;;;;;;;-3.20;73.96;92619.03;1715128;83;21215;-77
2021/01/20 03:48:05;;;;;;;4.83;3.63;;;;;;;-3.20;74.40;92612.39;1713119;83;22081;-77
2021/01/20 03:50:33;;;;;;;4.40;3.60;;;;;;;-3.22;74.79;92627.11;1749989;81;21189;-78
2021/01/20 03:53:00;;;;;;;4.57;3.60;;;;;;;-3.27;74.81;92633.41;1750409;80;21220;-76
2021/01/20 03:55:27;;;;;;;4.63;3.27;;;;;;;-3.29;74.42;92626.86;1727025;80;21513;-77
2021/01/20 03:57:55;;;;;;;9.70;4.07;;;;;;;-3.26;74.84;92622.22;1766894;80;21184;-80
2021/01/20 04:00:22;;;;;;;5.73;4.00;;;;;;;-3.23;77.77;92624.23;1779389;80;21250;-76
2021/01/20 04:02:50;;;;;;;5.07;4.10;;;;;;;-3.24;80.75;92626.64;1769719;80;21200;-75
2021/01/20 04:05:19;;;;;;;5.37;3.97;;;;;;;-3.29;77.10;92615.67;1773561;80;22208;-78
2021/01/20 04:07:48;;;;;;;6.07;4.10;;;;;;;-3.26;78.07;92622.22;1775034;80;21216;-78
2021/01/20 04:10:15;;;;;;;5.23;3.80;;;;;;;-3.31;76.66;92626.39;1779255;80;21128;-78
2021/01/20 04:12:43;;;;;;;4.67;3.47;;;;;;;-3.31;76.34;92624.54;1767993;81;22239;-76
2021/01/20 04:15:11;;;;;;;5.73;3.83;;;;;;;-3.31;75.47;92617.89;1721832;80;21168;-79
2021/01/20 04:17:38;;;;;;;5.23;3.77;;;;;;;-3.28;75.67;92618.55;1756478;80;21610;-79
2021/01/20 04:20:07;;;;;;;5.27;3.53;;;;;;;-3.28;75.80;92611.89;1774324;80;21165;-77
2021/01/20 04:22:35;;;;;;;5.43;4.10;;;;;;;-3.26;75.19;92616.34;1778258;80;21128;-80
2021/01/20 04:25:04;;;;;;;4.97;3.60;;;;;;;-3.22;75.25;92625.77;1767978;80;21450;-77
2021/01/20 04:27:32;;;;;;;6.00;3.53;;;;;;;-3.23;75.70;92605.06;1712927;80;21699;-79
2021/01/20 04:29:59;;;;;;;5.60;3.67;;;;;;;-3.24;75.42;92618.67;1763930;80;21184;-77
2021/01/20 04:32:27;;;;;;;3.80;3.23;;;;;;;-3.25;75.82;92628.53;1773417;80;21188;-78
2021/01/20 04:34:55;;;;;;;4.87;3.47;;;;;;;-3.24;75.24;92630.63;1757826;80;21192;-77
2021/01/20 04:37:22;;;;;;;4.83;4.10;;;;;;;-3.22;75.40;92625.22;1718932;81;21367;-79
2021/01/20 04:39:50;;;;;;;4.23;3.27;;;;;;;-3.22;75.92;92615.91;1779364;80;21174;-75
2021/01/20 04:42:17;;;;;;;3.60;3.13;;;;;;;-3.21;75.46;92620.67;1778915;80;21183;-78
2021/01/20 04:44:47;;;;;;;3.63;3.03;;;;;;;-3.17;75.36;92630.87;1774573;80;21191;-75
2021/01/20 04:47:16;;;;;;;4.73;3.57;;;;;;;-3.15;75.58;92623.36;1778529;80;21599;-79
2021/01/20 04:49:45;;;;;;;6.43;4.33;;;;;;;-3.17;75.66;92626.89;1763390;80;21489;-77
2021/01/20 04:52:16;;;;;;;4.13;3.00;;;;;;;-3.19;75.75;92624.57;1714415;83;21237;-78
2021/01/20 04:54:44;;;;;;;3.90;3.23;;;;;;;-3.19;75.90;92625.90;1766277;80;21111;-79
2021/01/20 04:57:15;;;;;;;3.90;3.20;;;;;;;-3.19;76.08;92635.20;1724355;81;21269;-79
2021/01/20 04:59:43;;;;;;;4.03;3.00;;;;;;;-3.19;75.91;92637.09;1751019;80;21171;-75
2021/01/20 05:02:10;;;;;;;3.30;2.53;;;;;;;-3.19;75.84;92630.45;1773965;80;21652;-80
2021/01/20 05:04:41;;;;;;;4.07;3.00;;;;;;;-3.19;75.66;92629.11;1767801;80;21180;-79
2021/01/20 05:07:09;;;;;;;4.40;3.20;;;;;;;-3.18;75.71;92630.66;1778410;80;21159;-77
2021/01/20 05:09:37;;;;;;;4.83;3.57;;;;;;;-3.16;75.75;92635.08;1767863;80;21271;-77
2021/01/20 05:12:06;;;;;;;3.40;2.90;;;;;;;-3.15;75.91;92641.20;1774920;80;21168;-78
2021/01/20 05:14:39;;;;;;;4.07;3.27;;;;;;;-3.19;76.23;92647.17;1773222;80;22173;-77
2021/01/20 05:17:08;;;;;;;4.63;3.90;;;;;;;-3.21;76.40;92645.37;1770841;80;21164;-77
2021/01/20 05:19:38;;;;;;;4.03;3.17;;;;;;;-3.22;75.97;92645.16;1754742;80;21124;-79
2021/01/20 05:22:11;;;;;;;3.63;3.17;;;;;;;-3.23;76.16;92639.63;1768041;81;21156;-76
2021/01/20 05:24:38;;;;;;;4.80;3.70;;;;;;;-3.23;76.24;92644.95;1777436;80;21184;-77
2021/01/20 05:27:07;;;;;;;5.23;3.30;;;;;;;-3.22;76.17;92645.72;1770866;80;21635;-77
2021/01/20 05:29:35;;;;;;;4.77;3.20;;;;;;;-3.21;76.27;92648.04;1772953;80;21253;-77
2021/01/20 05:32:18;;;;;;;4.43;3.23;;;;;;;-3.23;76.17;92650.27;1752765;81;21152;-77
2021/01/20 05:35:05;;;;;;;5.25;3.15;;;;;;;-3.25;76.15;92652.46;1768671;80;21242;-80
2021/01/20 05:37:46;;;;;;;5.37;3.87;;;;;;;-3.26;76.24;92662.11;1778873;80;21171;-76
2021/01/20 05:40:16;;;;;;;6.20;3.97;;;;;;;-3.27;76.23;92657.87;1779132;80;21542;-78
2021/01/20 05:42:52;;;;;;;4.33;3.37;;;;;;;-3.25;76.39;92656.45;1768851;80;21159;-78
2021/01/20 05:45:22;;;;;;;4.10;3.10;;;;;;;-3.26;75.87;92669.52;1775672;80;21191;-76
2021/01/20 05:48:08;;;;;;;4.83;3.30;;;;;;;-3.26;76.13;92667.42;1773042;80;21195;-78
2021/01/20 05:50:39;;;;;;;3.60;3.00;;;;;;;-3.27;76.07;92677.81;1772396;80;21619;-76
2021/01/20 05:53:10;;;;;;;5.40;3.73;;;;;;;-3.28;76.12;92674.38;1772887;80;21639;-77
2021/01/20 05:55:39;;;;;;;3.37;2.87;;;;;;;-3.29;76.12;92676.05;1766890;80;21219;-76
2021/01/20 05:58:07;;;;;;;5.83;4.10;;;;;;;-3.31;76.06;92679.05;1703927;83;21503;-77
2021/01/20 06:00:35;;;;;;;4.23;3.10;;;;;;;-3.31;76.30;92679.57;1753866;81;21305;-75
2021/01/20 06:03:03;;;;;;;3.77;3.30;;;;;;;-3.28;75.50;92689.56;1779657;80;21637;-75
2021/01/20 06:05:31;;;;;;;3.43;2.87;;;;;;;-3.25;75.39;92702.20;1773885;80;21879;-75
2021/01/20 06:07:59;;;;;;;5.10;3.20;;;;;;;-3.24;75.61;92694.45;1778448;80;21179;-75
2021/01/20 06:10:27;;;;;;;4.47;3.30;;;;;;;-3.24;75.67;92704.53;1767136;81;21175;-76
2021/01/20 06:12:55;;;;;;;6.83;3.90;;;;;;;-3.24;75.45;92706.41;1776360;80;21159;-76
2021/01/20 06:15:23;;;;;;;4.67;3.73;;;;;;;-3.24;75.71;92703.75;1769810;80;21679;-78
2021/01/20 06:17:51;;;;;;;4.00;3.00;;;;;;;-3.24;75.67;92719.70;1748769;80;21219;-77
2021/01/20 06:20:23;;;;;;;4.63;3.53;;;;;;;-3.25;75.94;92714.95;1727195;80;21180;-77
2021/01/20 06:22:53;;;;;;;3.53;3.20;;;;;;;-3.24;75.78;92721.04;1777477;80;21167;-74
2021/01/20 06:25:31;;;;;;;4.20;3.47;;;;;;;-3.22;76.00;92697.58;1774964;80;21164;-77
2021/01/20 06:28:08;;;;;;;4.93;3.40;;;;;;;-3.22;75.98;92724.94;1777735;80;21179;-77
2021/01/20 06:30:44;;;;;;;4.20;3.40;;;;;;;-3.21;76.22;92729.70;1769671;80;22203;-75
2021/01/20 06:33:13;;;;;;;4.63;3.37;;;;;;;-3.21;76.29;92737.67;1777601;80;21127;-78
2021/01/20 06:35:45;;;;;;;4.37;3.27;;;;;;;-3.22;76.39;92736.91;1770115;80;21649;-77
2021/01/20 06:38:37;;;;;;;4.57;3.47;;;;;;;-3.21;76.62;92737.13;1776329;80;21163;-77
2021/01/20 06:41:10;;;;;;;4.97;3.20;;;;;;;-3.21;77.10;92744.33;1778335;80;21717;-76
2021/01/20 06:43:46;;;;;;;4.77;3.70;;;;;;;-3.23;76.89;92749.98;1765660;81;21204;-79
2021/01/20 06:46:25;;;;;;;4.77;3.60;;;;;;;-3.23;77.39;92740.67;1777980;80;21195;-77
2021/01/20 06:49:01;;;;;;;6.27;4.67;;;;;;;-3.23;77.43;92742.00;1776171;80;21171;-78
2021/01/20 06:51:29;;;;;;;5.50;3.63;;;;;;;-3.22;77.88;92748.09;1771410;80;21319;-77
2021/01/20 06:54:05;;;;;;;5.40;3.23;;;;;;;-3.20;77.56;92747.20;1777658;80;21170;-79
2021/01/20 06:56:45;;;;;;;3.70;3.40;;;;;;;-3.18;77.46;92752.98;1769271;80;21493;-77
2021/01/20 06:59:30;;;;;;;5.07;4.27;;;;;;;-3.17;77.33;92754.54;1774570;80;21195;-76
2021/01/20 07:02:04;;;;;;;5.50;3.27;;;;;;;-3.14;77.30;92757.11;1767714;81;21104;-77
2021/01/20 07:04:45;;;;;;;5.50;3.12;;;;;;;-3.12;77.23;92772.17;1786437;79;21139;-77
2021/01/20 07:07:13;;;;;;;4.73;3.30;;;;;;;-3.08;77.23;92769.12;1765439;80;21093;-75
2021/01/20 07:10:00;;;;;;;4.53;3.60;;;;;;;-3.06;77.03;92755.70;1782490;80;21360;-76
2021/01/20 07:12:30;;;;;;;6.40;3.80;;;;;;;-3.02;77.12;92761.14;1773031;80;21128;-77
2021/01/20 07:14:57;;;;;;;4.43;3.63;;;;;;;-2.97;76.99;92775.56;1774155;80;21128;-76
2021/01/20 07:17:25;;;;;;;4.17;2.93;;;;;;;-2.94;76.74;92766.94;1723288;80;21100;-76
2021/01/20 07:19:53;;;;;;;3.80;3.20;;;;;;;-2.92;76.77;92771.39;1714669;83;21104;-75
2021/01/20 07:22:20;;;;;;;5.30;3.10;;;;;;;-2.90;76.50;92774.49;1771724;80;21375;-76
2021/01/20 07:24:47;;;;;;;4.40;3.40;;;;;;;-2.87;76.42;92777.84;1775154;80;21171;-79
2021/01/20 07:27:17;;;;;;;5.27;3.90;;;;;;;-2.83;76.59;92785.39;1773748;80;21666;-75
2021/01/20 07:29:47;;;;;;;5.03;3.53;;;;;;;-2.79;76.05;92782.85;1777952;80;22344;-78
2021/01/20 07:32:14;;;;;;;3.80;3.50;;;;;;;-2.76;76.35;92774.22;1765481;80;21446;-76
2021/01/20 07:34:43;;;;;;;3.27;2.60;;;;;;;-2.72;75.55;92785.77;1721206;82;22670;-76
2021/01/20 07:37:17;;;;;;;5.00;3.57;;;;;;;-2.65;75.79;92794.56;1752967;81;21604;-78
2021/01/20 07:39:45;;;;;;;4.10;3.30;;;;;;;-2.53;75.75;92803.36;1782018;80;21623;-76
2021/01/20 07:42:12;;;;;;;4.50;3.40;;;;;;;-2.37;74.96;92802.73;1771900;80;21630;-77
2021/01/20 07:44:48;;;;;;;3.80;3.40;;;;;;;-2.29;74.86;92807.99;1753130;80;21248;-78
2021/01/20 07:47:16;;;;;;;3.37;2.87;;;;;;;-2.22;74.57;92804.23;1778777;80;22017;-76
2021/01/20 07:49:53;;;;;;;5.13;3.67;;;;;;;-2.21;73.78;92807.12;1778196;80;21187;-76
2021/01/20 07:52:21;;;;;;;5.53;4.20;;;;;;;-2.21;74.35;92823.66;1769655;80;21128;-76
2021/01/20 07:54:49;;;;;;;3.53;3.23;;;;;;;-2.22;74.14;92819.41;1737896;80;21196;-77
2021/01/20 07:57:19;;;;;;;4.83;4.00;;;;;;;-2.25;74.35;92822.20;1739047;80;21626;-76
2021/01/20 08:00:28;;;;;;;4.73;3.60;;;;;;;-2.27;73.93;92826.30;1776815;80;21496;-77
2021/01/20 08:02:57;;;;;;;5.90;3.93;;;;;;;-2.33;73.74;92828.92;1687654;82;21207;-76
2021/01/20 08:05:32;;;;;;;6.07;4.90;;;;;;;-2.38;74.75;92843.23;1735491;82;21187;-77
2021/01/20 08:08:09;;;;;;;4.70;3.83;;;;;;;-2.39;74.69;92828.92;1736086;81;21156;-75
2021/01/20 08:10:38;;;;;;;4.63;3.13;;;;;;;-2.40;74.97;92838.80;1753182;79;21265;-76
2021/01/20 08:13:09;;;;;;;4.80;4.30;;;;;;;-2.40;75.29;92844.69;1717388;82;21637;-75
2021/01/20 08:15:39;;;;;;;5.97;3.97;;;;;;;-2.41;75.04;92845.77;1741103;82;21202;-75
2021/01/20 08:18:08;;;;;;;5.37;4.27;;;;;;;-2.42;75.04;92848.99;1744122;80;21179;-75
2021/01/20 08:20:37;;;;;;;5.67;4.13;;;;;;;-2.43;75.39;92850.10;1735891;82;21708;-75
2021/01/20 08:23:06;;;;;;;4.23;3.43;;;;;;;-2.45;74.99;92865.61;1746618;80;21212;-75
2021/01/20 08:25:33;;;;;;;5.10;3.70;;;;;;;-2.46;75.42;92863.51;1738163;81;21423;-76
2021/01/20 08:28:16;;;;;;;4.60;4.03;;;;;;;-2.46;75.42;92873.38;1742606;82;21226;-75
2021/01/20 08:30:44;;;;;;;5.00;3.67;;;;;;;-2.43;75.39;92870.08;1740466;81;21207;-75
2021/01/20 08:33:20;;;;;;;4.40;3.67;;;;;;;-2.41;75.41;92869.73;1731434;80;21196;-76
2021/01/20 08:35:57;;;;;;;5.73;4.13;;;;;;;-2.41;75.15;92877.16;1689791;82;22289;-76
2021/01/20 08:38:29;;;;;;;4.07;3.60;;;;;;;-2.40;75.47;92880.08;1747151;82;21209;-80
2021/01/20 08:41:13;;;;;;;5.10;4.20;;;;;;;-2.36;75.11;92876.21;1747533;80;21116;-78
2021/01/20 08:43:43;;;;;;;5.50;4.70;;;;;;;-2.32;75.36;92881.11;1745302;80;21773;-77
2021/01/20 08:46:24;;;;;;;4.73;4.00;;;;;;;-2.27;75.35;92883.55;1745949;81;21203;-77
2021/01/20 08:48:58;;;;;;;5.27;4.03;;;;;;;-2.26;75.26;92873.92;1720321;82;21236;-74
2021/01/20 08:51:26;;;;;;;;;;;;;;;-2.25;75.30;92882.13;1747835;80;22139;-77
2021/01/20 08:53:54;;;;;;;5.03;3.97;;;;;;;-2.24;75.33;92877.02;1740336;80;21074;-75
2021/01/20 08:56:26;;;;;;;5.90;4.43;;;;;;;-2.23;75.58;92893.78;1681964;85;21212;-76
2021/01/20 08:58:55;;;;;;;6.97;4.87;;;;;;;-2.23;75.49;92879.91;1707723;83;21212;-77
2021/01/20 09:01:27;;;;;;;8.00;5.83;;;;;;;-2.20;75.09;92883.25;1746341;80;21202;-77
2021/01/20 09:04:00;;;;;;;7.77;5.53;;;;;;;-2.15;75.35;92881.48;1740094;82;21239;-75
2021/01/20 09:06:29;;;;;;;6.63;5.30;;;;;;;-2.12;75.38;92886.94;1720315;82;22335;-75
2021/01/20 09:08:57;;;;;;;7.47;4.80;;;;;;;-2.07;75.02;92887.27;1746599;80;21155;-74
2021/01/20 09:11:26;;;;;;;7.53;4.60;;;;;;;-2.06;75.15;92882.19;1746726;80;21207;-77
2021/01/20 09:13:54;;;;;;;6.13;4.67;;;;;;;-2.08;75.06;92881.73;1746030;80;21212;-76
2021/01/20 09:16:29;;;;;;;6.00;4.83;;;;;;;-2.09;75.47;92873.52;1742837;82;22319;-75
2021/01/20 09:18:58;;;;;;;6.55;4.97;;;;;;;-2.07;75.20;92872.63;1743656;80;21264;-76
2021/01/20 09:21:28;;;;;;;6.10;4.97;;;;;;;-2.03;75.37;92879.65;1739430;82;21195;-76
2021/01/20 09:23:56;;;;;;;10.53;7.67;;;;;;;-1.96;74.94;92889.22;1747607;81;21081;-77
2021/01/20 09:26:25;;;;;;;6.40;4.93;;;;;;;-1.89;74.87;92885.22;1747739;80;21501;-74
2021/01/20 09:28:53;;;;;;;6.10;4.97;;;;;;;-1.86;74.87;92876.56;1694936;82;21219;-75
2021/01/20 09:31:22;;;;;;;6.17;4.67;;;;;;;-1.85;74.40;92873.56;1687939;83;21219;-75
2021/01/20 09:34:01;;;;;;;5.80;4.63;;;;;;;-1.81;74.42;92865.69;1693545;82;21505;-76
2021/01/20 09:36:30;;;;;;;10.00;6.83;;;;;;;-1.79;74.75;92861.59;1670232;83;21773;-76
2021/01/20 09:39:05;;;;;;;6.70;5.23;;;;;;;-1.73;74.74;92853.61;1714787;82;21732;-76
2021/01/20 09:41:35;;;;;;;6.20;5.10;;;;;;;-1.66;74.55;92858.38;1734974;81;21198;-76
2021/01/20 09:44:04;;;;;;;6.20;4.53;;;;;;;-1.60;74.23;92860.28;1715712;81;21127;-75
2021/01/20 09:46:32;;;;;;;6.53;4.90;;;;;;;-1.57;74.35;92867.63;1741384;82;21623;-74
2021/01/20 09:49:01;;;;;;;7.90;5.33;;;;;;;-1.56;74.52;92868.61;1739576;81;21183;-75
2021/01/20 09:51:30;;;;;;;8.57;5.53;;;;;;;-1.55;74.66;92874.16;1751639;81;21303;-76
2021/01/20 09:53:57;;;;;;;7.80;5.40;;;;;;;-1.49;74.56;92873.40;1735669;82;21378;-76
2021/01/20 09:56:25;;;;;;;10.27;7.47;;;;;;;-1.42;74.14;92882.19;1746090;80;21195;-75
2021/01/20 09:58:52;;;;;;;7.17;5.53;;;;;;;-1.42;73.51;92890.19;1739117;82;21191;-77
2021/01/20 10:01:20;;;;;;;7.77;5.77;;;;;;;-1.48;73.43;92885.05;1741461;82;21195;-75
2021/01/20 10:03:51;;;;;;;8.67;5.97;;;;;;;-1.49;73.33;92885.40;1744527;80;21200;-74
2021/01/20 10:06:20;;;;;;;6.90;5.37;;;;;;;-1.54;73.34;92885.62;1717252;82;21456;-73
2021/01/20 10:08:51;;;;;;;7.00;5.23;;;;;;;-1.55;73.22;92881.38;1724969;82;21256;-75
2021/01/20 10:11:19;;;;;;;10.13;5.70;;;;;;;-1.56;73.53;92883.83;1748170;80;21243;-74
2021/01/20 10:13:48;;;;;;;8.73;6.73;;;;;;;-1.57;73.91;92883.63;1740977;82;21191;-73
2021/01/20 10:16:17;;;;;;;17.70;11.57;;;;;;;-1.60;73.72;92878.39;1749012;80;21219;-73
2021/01/20 10:18:49;;;;;;;8.93;5.97;;;;;;;-1.64;73.97;92874.05;1739073;82;21439;-76
2021/01/20 10:21:27;;;;;;;9.53;5.83;;;;;;;-1.71;73.76;92866.59;1747161;80;21195;-74
2021/01/20 10:24:05;;;;;;;9.33;6.67;;;;;;;-1.75;74.64;92878.48;1748198;81;21473;-75
2021/01/20 10:26:38;;;;;;;7.83;5.50;;;;;;;-1.76;74.91;92873.48;1747624;81;21267;-75
2021/01/20 10:29:06;;;;;;;9.93;6.63;;;;;;;-1.77;74.68;92866.58;1744487;82;21183;-74
2021/01/20 10:31:36;;;;;;;8.37;6.00;;;;;;;-1.77;74.71;92863.38;1741545;80;21219;-75
2021/01/20 10:34:06;;;;;;;7.13;5.47;;;;;;;-1.74;74.57;92869.92;1747562;80;21202;-73
2021/01/20 10:36:35;;;;;;;6.70;5.27;;;;;;;-1.71;74.40;92854.05;1741694;80;21203;-74
2021/01/20 10:39:08;;;;;;;8.50;5.70;;;;;;;-1.68;74.24;92877.16;1683483;84;21235;-74
2021/01/20 10:41:36;;;;;;;6.93;5.10;;;;;;;-1.64;74.19;92868.72;1740674;80;21239;-74
2021/01/20 10:44:04;;;;;;;6.70;5.00;;;;;;;-1.64;74.20;92868.16;1753970;81;21288;-74
2021/01/20 10:46:33;;;;;;;6.60;4.80;;;;;;;-1.58;74.63;92868.71;1751912;80;21222;-74
2021/01/20 10:49:03;;;;;;;6.10;4.57;;;;;;;-1.53;73.70;92859.18;1738329;82;21191;-74
2021/01/20 10:51:34;;;;;;;7.00;5.00;;;;;;;-1.51;73.66;92859.61;1746779;81;21191;-75
2021/01/20 10:54:03;;;;;;;7.60;5.27;;;;;;;-1.47;73.88;92857.83;1747631;82;21179;-74
2021/01/20 10:56:31;;;;;;;7.80;4.77;;;;;;;-1.42;74.19;92862.19;1693184;80;21222;-74
2021/01/20 10:58:59;;;;;;;8.67;5.63;;;;;;;-1.41;73.91;92851.73;1691650;83;21240;-75
2021/01/20 11:01:29;;;;;;;8.77;5.60;;;;;;;-1.40;73.71;92850.05;1745750;80;21207;-76
2021/01/20 11:03:58;;;;;;;6.43;4.27;;;;;;;-1.40;74.28;92858.05;1739414;82;21207;-75
2021/01/20 11:06:26;;;;;;;8.43;5.00;;;;;;;-1.44;73.84;92860.39;1748430;80;21650;-74
2021/01/20 11:08:54;;;;;;;7.43;5.37;;;;;;;-1.49;74.36;92853.40;1736519;81;21373;-74
2021/01/20 11:11:22;;;;;;;8.70;5.50;;;;;;;-1.56;74.08;92849.95;1698202;80;21227;-75
2021/01/20 11:13:52;;;;;;;7.33;4.77;;;;;;;-1.60;74.18;92841.06;1714892;82;21188;-75
2021/01/20 11:16:19;;;;;;;7.47;4.77;;;;;;;-1.65;74.41;92848.52;1744454;80;21449;-75
2021/01/20 11:18:50;;;;;;;6.53;4.67;;;;;;;-1.68;74.72;92848.61;1745456;80;21179;-74
2021/01/20 11:21:18;;;;;;;6.13;4.60;;;;;;;-1.66;74.52;92857.59;1743472;80;21195;-74
2021/01/20 11:23:46;;;;;;;8.47;5.93;;;;;;;-1.63;74.55;92836.95;1735733;82;21196;-74
2021/01/20 11:26:14;;;;;;;6.33;4.93;;;;;;;-1.60;74.63;92837.06;1743616;82;21108;-74
2021/01/20 11:28:43;;;;;;;6.57;4.80;;;;;;;-1.58;74.47;92842.05;1747332;80;21567;-73
2021/01/20 11:31:11;;;;;;;7.73;5.10;;;;;;;-1.58;74.24;92841.52;1724448;81;21218;-74
2021/01/20 11:33:39;;;;;;;7.40;4.73;;;;;;;-1.52;74.27;92844.73;1746925;82;21356;-75
2021/01/20 11:36:08;;;;;;;9.73;5.50;;;;;;;-1.51;74.33;92847.05;1693150;82;21167;-73
2021/01/20 11:38:35;;;;;;;4.63;4.07;;;;;;;-1.49;73.97;92830.17;1739810;82;21674;-74
2021/01/20 11:41:04;;;;;;;6.50;4.27;;;;;;;-1.47;73.25;92843.16;1748169;80;21261;-75
2021/01/20 11:43:32;;;;;;;5.33;4.27;;;;;;;-1.45;73.76;92846.28;1743915;80;21430;-74
2021/01/20 11:46:00;;;;;;;4.83;4.17;;;;;;;-1.38;73.22;92845.17;1747488;80;22057;-75
2021/01/20 11:48:28;;;;;;;6.10;4.43;;;;;;;-1.36;72.58;92845.61;1747588;81;21698;-74
2021/01/20 11:50:57;;;;;;;4.73;3.80;;;;;;;-1.34;73.03;92840.73;1746129;80;21443;-74